Terminal Aerodrome Forecast
Issued by NWS

Home | Current Version | Previous Version | Text Only | Print | Product List | Glossary On
Versions: 1 2 3 4 5 6 7 8 9 10 11 12 13 14 15 16 17 18
788
FTUS43 KLSX 120520
TAFCPS
TAF
KCPS 120520Z 1206/1306 32019G29KT P6SM OVC020
     FM121200 32014G22KT P6SM SCT040
     FM122300 30009KT P6SM FEW250
     FM130100 30005KT P6SM FEW200=

USA.gov is the U.S. government's official web portal to all federal, state and local government web resources and services.